Terminal Aerodrome Forecast
Issued by NWS

Home | Current Version | Previous Version | Text Only | Print | Product List | Glossary On
Versions: 1 2 3 4 5 6 7 8 9 10 11 12 13 14 15 16 17 18 19 20 21
000
FTUS45 KBOU 180456 AAB
TAFAPA
TAF AMD
KAPA 180456Z 1805/1824 29007KT P6SM VCSH BKN006 OVC015
     FM180600 31016G24KT P6SM SCT015 BKN035 OVC060
     FM180900 34016G26KT P6SM BKN025 OVC060
     FM181400 17007KT P6SM FEW080
     FM182000 05007KT P6SM FEW080=

USA.gov is the U.S. government's official web portal to all federal, state and local government web resources and services.